Terminal Aerodrome Forecast
Issued by NWS Cleveland, OH

Home | Current Version | Previous Version | Graphics & Text | Print | Product List | Glossary On
Versions: 1 2 3 4 5 6 7 8 9 10 11 12 13
000
FTUS41 KCLE 272100 AAA
TAFCAK
TAF AMD
KCAK 272100Z 2721/2818 21015G25KT P6SM BKN045
      TEMPO 2800/2803 27020G40KT 2SM TSRA OVC035CB
     FM280300 24008KT P6SM VCSH BKN080
     FM280500 27005KT P6SM BKN120
     FM280900 32003KT 5SM BR SKC
     FM281400 04005KT P6SM SKC=

USA.gov is the U.S. government's official web portal to all federal, state and local government web resources and services.